Terminal Aerodrome Forecast
Issued by NWS

Home | Current Version | Previous Version | Text Only | Print | Product List | Glossary On
Versions: 1 2 3 4 5 6 7 8 9 10 11 12 13 14 15 16 17 18 19 20 21 22 23 24 25 26 27 28 29
000
FTUS43 KDLH 311200 AAA
TAFHIB
TAF AMD
KHIB 311232Z 3113/0112 VRB02KT P6SM SKC
     FM311500 34007KT P6SM SCT050
     FM010300 00000KT 6SM BR SKC=

USA.gov is the U.S. government's official web portal to all federal, state and local government web resources and services.